createdAt,value
2018-03-28T00:04:38.240Z,9.07
2018-03-28T00:07:12.145Z,9.27
2018-03-28T00:09:45.546Z,9.33
2018-03-28T00:12:18.270Z,9.27
2018-03-28T00:14:52.293Z,9.53
2018-03-28T00:17:24.908Z,9.83
2018-03-28T00:19:57.641Z,9.43
2018-03-28T00:22:30.630Z,9.47
2018-03-28T00:25:04.021Z,8.73
2018-03-28T00:27:36.683Z,8.70
2018-03-28T00:30:11.676Z,9.10
2018-03-28T00:35:58.809Z,8.27
2018-03-28T00:38:31.449Z,8.87
2018-03-28T00:41:04.193Z,8.97
2018-03-28T00:43:37.430Z,9.23
2018-03-28T00:46:10.728Z,9.10
2018-03-28T00:48:42.911Z,9.47
2018-03-28T00:51:40.132Z,10.03
2018-03-28T00:54:12.412Z,9.33
2018-03-28T00:56:44.698Z,8.77
2018-03-28T00:59:17.501Z,8.57
2018-03-28T01:01:51.614Z,9.50
2018-03-28T01:04:23.882Z,9.40
2018-03-28T01:06:56.176Z,9.10
2018-03-28T01:09:28.454Z,9.70
2018-03-28T01:12:00.856Z,7.57
2018-03-28T01:14:34.628Z,9.70
2018-03-28T01:17:07.783Z,9.33
2018-03-28T01:19:40.295Z,9.33
2018-03-28T01:22:14.271Z,8.70
2018-03-28T01:24:46.514Z,9.60
2018-03-28T01:27:19.641Z,10.07
2018-03-28T01:29:53.952Z,9.70
2018-03-28T01:32:26.741Z,9.83
2018-03-28T01:34:59.791Z,9.93
2018-03-28T01:37:35.078Z,10.23
2018-03-28T01:40:07.563Z,10.27
2018-03-28T01:42:39.878Z,10.27
2018-03-28T01:45:16.773Z,9.63
2018-03-28T01:47:49.134Z,11.27
2018-03-28T01:50:21.462Z,11.00
2018-03-28T01:53:00.997Z,11.50
2018-03-28T01:55:33.867Z,10.83
2018-03-28T01:58:11.185Z,10.63
2018-03-28T02:00:47.236Z,10.27
2018-03-28T02:03:19.737Z,10.23
2018-03-28T02:05:52.361Z,11.00
2018-03-28T02:08:24.905Z,10.70
2018-03-28T02:10:57.984Z,11.07
2018-03-28T02:13:30.498Z,11.37
2018-03-28T02:16:03.046Z,11.60
2018-03-28T02:18:35.451Z,11.60
2018-03-28T02:21:08.403Z,11.57
2018-03-28T02:23:42.536Z,11.37
2018-03-28T02:26:15.037Z,11.53
2018-03-28T02:28:49.062Z,12.33
2018-03-28T02:31:21.576Z,12.37
2018-03-28T02:33:54.797Z,11.80
2018-03-28T02:36:27.349Z,12.13
2018-03-28T02:38:59.765Z,11.50
2018-03-28T02:41:32.283Z,12.07
2018-03-28T02:44:05.783Z,11.87
2018-03-28T02:46:38.902Z,11.57
2018-03-28T02:49:11.413Z,11.97
2018-03-28T02:51:47.740Z,12.70
2018-03-28T02:54:20.215Z,12.30
2018-03-28T02:56:52.800Z,12.60
2018-03-28T02:59:25.618Z,11.90
2018-03-28T03:01:58.010Z,11.30
2018-03-28T03:04:30.447Z,13.43
2018-03-28T03:07:02.708Z,12.07
2018-03-28T03:09:35.298Z,12.30
2018-03-28T03:12:07.931Z,12.33
2018-03-28T03:14:42.085Z,12.80
2018-03-28T03:17:15.493Z,12.67
2018-03-28T03:19:47.868Z,12.27
2018-03-28T03:22:20.512Z,13.07
2018-03-28T03:24:52.817Z,11.60
2018-03-28T03:27:25.048Z,11.77
2018-03-28T03:29:57.642Z,12.37
2018-03-28T03:32:30.064Z,12.83
2018-03-28T03:35:02.868Z,13.17
2018-03-28T03:37:35.336Z,12.17
2018-03-28T03:40:10.733Z,12.33
2018-03-28T03:42:43.863Z,12.10
2018-03-28T03:45:16.963Z,12.37
2018-03-28T03:47:50.285Z,13.50
2018-03-28T03:50:23.782Z,12.53
2018-03-28T03:52:56.271Z,12.70
2018-03-28T03:55:28.625Z,13.93
2018-03-28T03:58:02.061Z,11.90
2018-03-28T04:00:34.399Z,13.23
2018-03-28T04:03:06.892Z,13.70
2018-03-28T04:05:40.392Z,13.33
2018-03-28T04:08:12.962Z,13.30
2018-03-28T04:10:45.517Z,12.87
2018-03-28T04:13:19.262Z,13.60
2018-03-28T04:15:52.730Z,13.80
2018-03-28T04:18:25.095Z,13.57
2018-03-28T04:20:59.336Z,13.70
2018-03-28T04:23:31.682Z,14.23
2018-03-28T04:26:04.199Z,14.03
2018-03-28T04:28:38.620Z,13.37
2018-03-28T04:31:13.075Z,13.67
2018-03-28T04:33:45.664Z,13.77
2018-03-28T04:36:21.122Z,12.80
2018-03-28T04:38:55.384Z,15.23
2018-03-28T04:41:29.676Z,13.30
2018-03-28T04:44:02.930Z,14.50
2018-03-28T04:46:35.411Z,14.47
2018-03-28T04:49:07.901Z,14.13
2018-03-28T04:51:40.531Z,14.53
2018-03-28T04:54:14.954Z,14.83
2018-03-28T04:56:48.125Z,14.83
2018-03-28T04:59:22.208Z,14.47
2018-03-28T05:01:58.806Z,15.30
2018-03-28T05:04:33.883Z,14.93
2018-03-28T05:07:06.386Z,15.80
2018-03-28T05:09:39.610Z,15.80
2018-03-28T05:12:14.590Z,15.77
2018-03-28T05:14:47.365Z,15.43
2018-03-28T05:17:19.738Z,15.30
2018-03-28T05:19:54.337Z,16.03
2018-03-28T05:22:28.047Z,16.70
2018-03-28T05:25:00.592Z,15.37
2018-03-28T05:27:34.787Z,15.83
2018-03-28T05:30:09.453Z,15.90
2018-03-28T05:32:42.958Z,16.17
2018-03-28T05:35:18.246Z,16.93
2018-03-28T05:37:59.697Z,14.93
2018-03-28T05:40:32.178Z,15.73
2018-03-28T05:43:08.378Z,15.23
2018-03-28T05:45:44.385Z,16.10
2018-03-28T05:48:24.127Z,16.83
2018-03-28T05:51:02.274Z,15.10
2018-03-28T05:53:38.585Z,15.47
2018-03-28T05:56:11.492Z,15.23
2018-03-28T05:58:44.026Z,16.27
2018-03-28T06:01:19.708Z,15.97
2018-03-28T06:03:52.846Z,15.07
2018-03-28T06:06:28.094Z,15.87
2018-03-28T06:09:06.910Z,15.20
2018-03-28T06:11:45.848Z,16.00
2018-03-28T06:14:22.863Z,16.13
2018-03-28T06:16:58.661Z,16.87
2018-03-28T06:19:31.950Z,16.83
2018-03-28T06:22:07.632Z,15.90
2018-03-28T06:24:43.410Z,15.93
2018-03-28T06:27:20.664Z,16.57
2018-03-28T06:29:53.212Z,16.40
2018-03-28T06:32:27.634Z,15.37
2018-03-28T06:35:06.666Z,16.10
2018-03-28T06:37:41.601Z,16.97
2018-03-28T06:40:18.764Z,16.50
2018-03-28T06:42:54.180Z,16.90
2018-03-28T06:45:28.747Z,16.57
2018-03-28T06:48:06.218Z,16.40
2018-03-28T06:50:38.920Z,17.70
2018-03-28T06:53:14.932Z,16.50
2018-03-28T06:55:50.322Z,16.53
2018-03-28T06:58:27.675Z,15.70
2018-03-28T07:01:00.157Z,14.57
2018-03-28T07:03:36.932Z,15.83
2018-03-28T07:06:12.502Z,15.47
2018-03-28T07:08:55.701Z,15.83
2018-03-28T07:11:32.500Z,15.87
2018-03-28T07:14:19.707Z,17.07
2018-03-28T07:16:53.409Z,16.27
2018-03-28T07:19:33.582Z,15.83
2018-03-28T07:22:11.180Z,15.97
2018-03-28T07:24:43.951Z,14.93
2018-03-28T07:27:20.177Z,15.77
2018-03-28T07:29:54.399Z,14.57
2018-03-28T07:32:31.819Z,15.53
2018-03-28T07:35:07.937Z,14.90
2018-03-28T07:37:44.447Z,15.67
2018-03-28T07:40:22.259Z,15.40
2018-03-28T07:42:56.806Z,14.80
2018-03-28T07:45:32.441Z,14.23
2018-03-28T07:48:05.634Z,15.30
2018-03-28T07:50:43.881Z,13.63
2018-03-28T07:53:17.847Z,14.00
2018-03-28T07:58:33.623Z,13.77
2018-03-28T08:01:08.193Z,13.37
2018-03-28T08:03:47.132Z,12.97
2018-03-28T08:06:22.118Z,13.90
2018-03-28T08:08:58.581Z,12.80
2018-03-28T08:11:33.766Z,13.33
2018-03-28T08:14:15.006Z,12.73
2018-03-28T08:16:48.181Z,12.90
2018-03-28T08:19:24.357Z,13.00
2018-03-28T08:22:13.505Z,12.67
2018-03-28T08:24:48.401Z,12.60
2018-03-28T08:27:22.727Z,12.87
2018-03-28T08:29:57.898Z,11.03
2018-03-28T08:32:31.252Z,11.50
2018-03-28T08:35:08.027Z,10.73
2018-03-28T08:37:41.960Z,11.63
2018-03-28T08:40:17.880Z,10.90
2018-03-28T08:42:58.790Z,11.20
2018-03-28T08:45:31.305Z,10.77
2018-03-28T08:48:07.653Z,11.03
2018-03-28T08:50:42.431Z,10.33
2018-03-28T08:53:14.783Z,10.70
2018-03-28T08:55:52.785Z,10.90
2018-03-28T08:58:26.814Z,10.20
2018-03-28T09:01:01.911Z,10.57
2018-03-28T09:03:34.668Z,10.50
2018-03-28T09:06:11.582Z,10.47
2018-03-28T09:08:50.322Z,10.03
2018-03-28T09:11:25.909Z,9.33
2018-03-28T09:16:44.247Z,7.60
2018-03-28T09:22:06.145Z,8.43
2018-03-28T09:27:16.359Z,5.47
2018-03-28T09:29:51.576Z,6.00
2018-03-28T09:42:31.526Z,6.53
2018-03-28T10:07:54.365Z,7.40
2018-03-28T10:19:59.230Z,6.63
2018-03-28T10:46:19.466Z,5.17
2018-03-28T11:12:24.128Z,7.27
2018-03-28T11:17:02.475Z,6.80
2018-03-28T11:32:13.654Z,3.13
2018-03-28T11:34:49.190Z,3.17
2018-03-28T11:37:28.279Z,3.23
2018-03-28T11:40:04.823Z,2.97
2018-03-28T11:42:42.550Z,2.97
2018-03-28T11:45:15.539Z,2.60
2018-03-28T11:47:50.420Z,2.70
2018-03-28T11:50:27.167Z,2.77
2018-03-28T11:53:04.794Z,2.67
2018-03-28T11:55:47.228Z,2.63
2018-03-28T11:58:25.757Z,2.70
2018-03-28T12:01:02.873Z,2.43
2018-03-28T12:03:35.166Z,2.23
2018-03-28T12:06:08.758Z,2.57
2018-03-28T12:08:46.536Z,2.10
2018-03-28T12:11:27.841Z,2.33
2018-03-28T12:14:05.122Z,2.50
2018-03-28T12:16:37.670Z,2.40
2018-03-28T12:19:16.070Z,2.00
2018-03-28T12:21:50.138Z,2.30
2018-03-28T12:24:30.057Z,2.00
2018-03-28T12:27:07.355Z,2.30
2018-03-28T12:29:39.745Z,2.13
2018-03-28T12:32:18.480Z,1.33
2018-03-28T12:34:59.958Z,2.10
2018-03-28T12:37:40.103Z,2.10
2018-03-28T12:40:19.461Z,1.80
2018-03-28T12:42:58.660Z,2.23
2018-03-28T12:45:32.888Z,2.33
2018-03-28T12:50:52.696Z,2.23
2018-03-28T12:53:41.477Z,1.90
2018-03-28T12:56:19.282Z,2.73
2018-03-28T12:58:54.907Z,2.23
2018-03-28T13:01:32.616Z,1.70
2018-03-28T13:04:08.321Z,2.10
2018-03-28T13:06:40.875Z,1.97
2018-03-28T13:09:15.825Z,1.90
2018-03-28T13:11:52.988Z,2.03
2018-03-28T13:17:18.797Z,1.87
2018-03-28T13:19:55.430Z,1.70
2018-03-28T13:22:37.126Z,2.13
2018-03-28T13:25:15.123Z,2.00
2018-03-28T13:27:54.934Z,2.30
2018-03-28T13:33:13.513Z,1.70
2018-03-28T13:35:46.758Z,1.73
2018-03-28T13:38:24.956Z,1.60
2018-03-28T13:41:01.059Z,2.30
2018-03-28T13:43:43.169Z,1.77
2018-03-28T13:46:18.591Z,1.80
2018-03-28T13:48:55.933Z,1.80
2018-03-28T13:51:31.591Z,2.00
2018-03-28T13:54:07.794Z,1.90
2018-03-28T13:56:46.260Z,1.60
2018-03-28T13:59:20.175Z,2.80
2018-03-28T14:01:57.624Z,2.23
2018-03-28T14:04:38.564Z,2.53
2018-03-28T14:07:11.085Z,2.80
2018-03-28T14:09:48.762Z,3.20
2018-03-28T14:12:25.474Z,3.10
2018-03-28T14:15:02.516Z,3.13
2018-03-28T14:17:39.826Z,3.17
2018-03-28T14:20:12.241Z,3.80
2018-03-28T14:22:53.064Z,3.27
2018-03-28T14:25:38.256Z,3.20
2018-03-28T14:28:11.239Z,3.90
2018-03-28T14:30:48.146Z,3.60
2018-03-28T14:33:25.341Z,2.60
2018-03-28T14:36:00.643Z,2.60
2018-03-28T14:38:37.159Z,2.07
2018-03-28T14:41:12.574Z,2.10
2018-03-28T14:43:49.630Z,2.50
2018-03-28T14:46:25.249Z,1.90
2018-03-28T14:49:06.934Z,2.00
2018-03-28T14:54:28.676Z,1.60
2018-03-28T14:57:06.783Z,1.70
2018-03-28T14:59:44.650Z,2.00
2018-03-28T15:02:20.740Z,1.70
2018-03-28T15:04:56.496Z,1.40
2018-03-28T15:07:32.684Z,2.87
2018-03-28T15:10:12.120Z,2.37
2018-03-28T15:12:47.900Z,2.70
2018-03-28T15:18:05.877Z,3.17
2018-03-28T15:20:38.373Z,3.20
2018-03-28T15:23:13.927Z,3.27
2018-03-28T15:28:52.844Z,4.40
2018-03-28T15:31:34.070Z,5.23
2018-03-28T15:34:11.379Z,5.00
2018-03-28T15:36:48.956Z,4.80
2018-03-28T15:39:21.714Z,3.87
2018-03-28T15:42:00.427Z,3.57
2018-03-28T15:44:40.099Z,3.93
2018-03-28T15:52:49.570Z,8.47
2018-03-28T15:55:22.015Z,4.03
2018-03-28T15:57:54.468Z,4.17
2018-03-28T16:00:34.835Z,4.23
2018-03-28T16:03:14.935Z,3.77
2018-03-28T16:05:47.476Z,3.83
2018-03-28T16:08:22.833Z,3.87
2018-03-28T16:10:56.414Z,4.10
2018-03-28T16:13:28.928Z,4.13
2018-03-28T16:18:53.333Z,3.80
2018-03-28T16:21:26.498Z,4.63
2018-03-28T16:24:00.275Z,4.30
2018-03-28T16:26:39.040Z,3.90
2018-03-28T16:29:18.073Z,4.37
2018-03-28T16:31:55.328Z,10.63
2018-03-28T16:34:28.680Z,5.53
2018-03-28T16:37:07.311Z,7.20
2018-03-28T16:39:41.991Z,5.67
2018-03-28T16:42:18.592Z,7.63
2018-03-28T16:47:36.683Z,5.20
2018-03-28T16:50:16.666Z,5.27
2018-03-28T16:52:49.254Z,4.67
2018-03-28T16:55:24.695Z,4.77
2018-03-28T16:57:59.757Z,4.63
2018-03-28T17:00:32.994Z,5.27
2018-03-28T17:03:08.946Z,6.00
2018-03-28T17:05:42.492Z,6.30
2018-03-28T17:08:17.269Z,6.80
2018-03-28T17:10:50.116Z,6.80
2018-03-28T17:13:23.416Z,6.33
2018-03-28T17:15:59.667Z,6.20
2018-03-28T17:18:44.617Z,6.13
2018-03-28T17:21:27.677Z,6.70
2018-03-28T17:24:02.489Z,7.33
2018-03-28T17:26:50.461Z,7.07
2018-03-28T17:29:27.094Z,7.30
2018-03-28T17:32:04.378Z,6.90
2018-03-28T17:34:44.725Z,7.00
2018-03-28T17:37:18.001Z,6.60
2018-03-28T17:40:00.507Z,6.80
2018-03-28T17:42:35.753Z,6.80
2018-03-28T17:45:10.845Z,6.37
2018-03-28T17:47:46.002Z,6.37
2018-03-28T17:50:18.587Z,7.13
2018-03-28T17:52:54.991Z,7.73
2018-03-28T17:55:29.340Z,7.73
2018-03-28T17:58:04.164Z,7.87
2018-03-28T18:00:37.671Z,7.93
2018-03-28T18:03:10.558Z,8.10
2018-03-28T18:05:45.068Z,7.63
2018-03-28T18:08:18.176Z,8.13
2018-03-28T18:10:53.053Z,6.97
2018-03-28T18:13:27.518Z,9.63
2018-03-28T18:16:12.608Z,12.60
2018-03-28T18:18:47.633Z,9.70
2018-03-28T18:21:25.492Z,9.23
2018-03-28T18:24:00.825Z,10.13
2018-03-28T18:26:40.002Z,10.17
2018-03-28T18:29:12.698Z,9.53
2018-03-28T18:31:50.676Z,9.40
2018-03-28T18:34:23.987Z,9.00
2018-03-28T18:37:01.424Z,9.20
2018-03-28T18:39:44.187Z,9.60
2018-03-28T18:42:20.459Z,9.83
2018-03-28T18:44:58.592Z,9.10
2018-03-28T18:47:33.126Z,9.30
2018-03-28T18:50:06.429Z,10.00
2018-03-28T18:52:42.328Z,9.07
2018-03-28T18:55:15.888Z,9.33
2018-03-28T18:57:48.624Z,9.30
2018-03-28T19:00:25.360Z,9.43
2018-03-28T19:02:59.228Z,9.20
2018-03-28T19:05:34.009Z,9.20
2018-03-28T19:08:07.212Z,8.47
2018-03-28T19:10:40.073Z,10.97
2018-03-28T19:13:18.815Z,8.70
2018-03-28T19:15:56.268Z,7.70
2018-03-28T19:18:29.878Z,8.07
2018-03-28T19:21:06.795Z,8.80
2018-03-28T19:23:39.716Z,8.33
2018-03-28T19:26:12.297Z,8.50
2018-03-28T19:28:48.027Z,8.80
2018-03-28T19:31:20.614Z,9.23
2018-03-28T19:33:53.252Z,9.00
2018-03-28T19:36:28.529Z,10.30
2018-03-28T19:39:02.543Z,10.53
2018-03-28T19:41:34.862Z,11.00
2018-03-28T19:44:09.580Z,10.10
2018-03-28T19:46:42.278Z,10.43
2018-03-28T19:49:18.527Z,10.03
2018-03-28T19:51:54.360Z,8.20
2018-03-28T19:54:29.896Z,7.97
2018-03-28T19:57:06.027Z,10.07
2018-03-28T19:59:41.060Z,8.93
2018-03-28T20:02:13.561Z,10.37
2018-03-28T20:04:48.033Z,12.47
2018-03-28T20:07:22.331Z,10.87
2018-03-28T20:09:55.044Z,11.00
2018-03-28T20:12:29.380Z,10.37
2018-03-28T20:15:05.983Z,10.43
2018-03-28T20:17:38.875Z,8.87
2018-03-28T20:20:16.725Z,8.60
2018-03-28T20:22:51.719Z,7.90
2018-03-28T20:38:20.786Z,6.67
2018-03-28T20:40:56.038Z,7.10
2018-03-28T20:43:29.680Z,7.53
2018-03-28T20:46:07.582Z,7.07
2018-03-28T20:48:41.393Z,8.00
2018-03-28T20:51:17.209Z,7.90
2018-03-28T20:53:53.844Z,7.67
2018-03-28T20:56:28.811Z,7.97
2018-03-28T20:59:01.862Z,7.70
2018-03-28T21:01:53.035Z,7.53
2018-03-28T21:04:27.213Z,7.10
2018-03-28T21:07:00.055Z,7.57
2018-03-28T21:09:34.878Z,7.10
2018-03-28T21:12:08.596Z,7.63
2018-03-28T21:14:41.203Z,7.30
2018-03-28T21:17:15.755Z,7.50
2018-03-28T21:19:49.015Z,7.83
2018-03-28T21:22:22.326Z,7.00
2018-03-28T21:24:56.717Z,7.13
2018-03-28T21:27:29.346Z,7.13
2018-03-28T21:30:03.958Z,6.50
2018-03-28T21:32:36.733Z,7.57
2018-03-28T21:35:10.128Z,7.30
2018-03-28T21:37:43.677Z,6.00
2018-03-28T21:40:17.054Z,6.70
2018-03-28T21:42:51.111Z,6.50
2018-03-28T21:45:23.785Z,6.63
2018-03-28T21:47:56.336Z,6.60
2018-03-28T21:50:29.830Z,6.07
2018-03-28T21:53:03.059Z,6.77
2018-03-28T21:55:36.445Z,6.47
2018-03-28T21:58:25.641Z,5.97
2018-03-28T22:00:58.222Z,5.80
2018-03-28T22:03:30.864Z,6.20
2018-03-28T22:06:24.088Z,6.23
2018-03-28T22:08:56.643Z,5.83
2018-03-28T22:11:31.642Z,6.67
2018-03-28T22:14:09.561Z,5.43
2018-03-28T22:16:42.312Z,6.90
2018-03-28T22:19:14.955Z,5.97
2018-03-28T22:21:47.503Z,5.83
2018-03-28T22:24:23.655Z,4.80
2018-03-28T22:26:57.010Z,5.00
2018-03-28T22:29:29.607Z,5.30
2018-03-28T22:32:03.861Z,4.50
2018-03-28T22:34:37.160Z,4.90
2018-03-28T22:37:10.529Z,4.40
2018-03-28T22:39:47.979Z,4.60
2018-03-28T22:42:21.347Z,4.97
2018-03-28T22:44:54.762Z,4.73
2018-03-28T22:47:27.912Z,4.73
2018-03-28T22:50:00.798Z,5.50
2018-03-28T22:52:33.386Z,4.83
2018-03-28T22:55:07.094Z,4.50
2018-03-28T22:57:40.122Z,4.60
2018-03-28T23:00:13.188Z,5.60
2018-03-28T23:02:45.810Z,4.20
2018-03-28T23:05:18.834Z,5.40
2018-03-28T23:07:51.387Z,5.20
2018-03-28T23:10:24.804Z,5.57
2018-03-28T23:12:58.755Z,5.63
2018-03-28T23:15:31.483Z,5.23
2018-03-28T23:18:04.185Z,5.47
2018-03-28T23:20:37.112Z,5.70
2018-03-28T23:23:09.670Z,5.77
2018-03-28T23:25:42.254Z,5.70
2018-03-28T23:28:15.107Z,6.43
2018-03-28T23:30:47.746Z,5.90
2018-03-28T23:33:20.296Z,5.90
2018-03-28T23:35:53.655Z,6.27
2018-03-28T23:38:26.366Z,6.33
2018-03-28T23:40:59.202Z,5.60
2018-03-28T23:43:32.294Z,5.90
2018-03-28T23:46:05.308Z,5.40
2018-03-28T23:48:38.194Z,5.20
2018-03-28T23:51:11.225Z,4.47
2018-03-28T23:53:43.811Z,4.03
2018-03-28T23:56:16.448Z,3.67
